createdAt,value
2018-04-07T00:00:46.396Z,7.22
2018-04-07T00:03:13.869Z,7.58
2018-04-07T00:05:41.322Z,7.46
2018-04-07T00:08:08.784Z,7.12
2018-04-07T00:10:36.251Z,6.86
2018-04-07T00:13:04.017Z,6.78
2018-04-07T00:15:31.514Z,6.62
2018-04-07T00:17:58.949Z,6.50
2018-04-07T00:20:26.421Z,6.21
2018-04-07T00:22:53.884Z,6.14
2018-04-07T00:25:21.326Z,6.13
2018-04-07T00:27:48.809Z,5.79
2018-04-07T00:30:16.281Z,5.76
2018-04-07T00:32:43.801Z,5.78
2018-04-07T00:35:11.373Z,5.91
2018-04-07T00:37:38.821Z,6.07
2018-04-07T00:40:06.257Z,6.19
2018-04-07T00:42:33.730Z,6.19
2018-04-07T00:45:01.174Z,5.98
2018-04-07T00:47:28.905Z,5.98
2018-04-07T00:49:56.398Z,5.88
2018-04-07T00:52:23.842Z,5.98
2018-04-07T00:54:51.306Z,5.96
2018-04-07T00:57:18.801Z,6.00
2018-04-07T00:59:46.275Z,5.91
2018-04-07T01:02:13.716Z,5.93
2018-04-07T01:04:41.177Z,5.99
2018-04-07T01:07:08.618Z,5.94
2018-04-07T01:09:36.060Z,6.21
2018-04-07T01:12:03.534Z,6.18
2018-04-07T01:14:30.990Z,5.89
2018-04-07T01:16:58.451Z,5.64
2018-04-07T01:19:25.909Z,5.61
2018-04-07T01:21:53.350Z,5.40
2018-04-07T01:24:20.789Z,5.39
2018-04-07T01:26:48.250Z,5.48
2018-04-07T01:29:15.712Z,5.29
2018-04-07T01:31:43.161Z,5.06
2018-04-07T01:34:10.647Z,5.02
2018-04-07T01:36:38.116Z,4.81
2018-04-07T01:39:05.589Z,4.86
2018-04-07T01:41:33.301Z,4.79
2018-04-07T01:44:00.755Z,4.51
2018-04-07T01:46:28.203Z,4.65
2018-04-07T01:48:55.677Z,4.67
2018-04-07T01:51:23.125Z,4.85
2018-04-07T01:53:50.565Z,4.63
2018-04-07T01:56:18.079Z,4.67
2018-04-07T01:58:45.522Z,4.72
2018-04-07T02:01:12.959Z,4.33
2018-04-07T02:03:40.428Z,4.82
2018-04-07T02:06:07.886Z,4.63
2018-04-07T02:08:35.324Z,4.57
2018-04-07T02:11:03.099Z,4.55
2018-04-07T02:13:30.570Z,4.35
2018-04-07T02:15:58.018Z,4.29
2018-04-07T02:18:25.818Z,4.24
2018-04-07T02:20:53.267Z,3.92
2018-04-07T02:23:20.721Z,3.86
2018-04-07T02:25:48.390Z,3.79
2018-04-07T02:28:15.843Z,4.13
2018-04-07T02:30:43.289Z,4.11
2018-04-07T02:33:10.876Z,4.12
2018-04-07T02:35:38.318Z,4.31
2018-04-07T02:38:05.766Z,4.34
2018-04-07T02:40:33.241Z,4.47
2018-04-07T02:43:00.677Z,4.37
2018-04-07T02:45:28.275Z,4.12
2018-04-07T02:47:55.772Z,4.22
2018-04-07T02:50:23.245Z,4.08
2018-04-07T02:52:50.683Z,3.97
2018-04-07T02:55:18.125Z,3.71
2018-04-07T02:57:45.680Z,3.82
2018-04-07T03:00:13.139Z,3.88
2018-04-07T03:02:40.597Z,3.62
2018-04-07T03:05:08.054Z,3.53
2018-04-07T03:07:35.497Z,3.36
2018-04-07T03:10:03.134Z,3.55
2018-04-07T03:12:30.709Z,3.42
2018-04-07T03:14:58.177Z,3.35
2018-04-07T03:17:25.668Z,3.42
2018-04-07T03:19:53.105Z,3.39
2018-04-07T03:22:20.769Z,3.30
2018-04-07T03:24:48.222Z,3.26
2018-04-07T03:27:15.661Z,3.46
2018-04-07T03:29:43.134Z,3.23
2018-04-07T03:32:10.608Z,3.28
2018-04-07T03:34:38.086Z,3.26
2018-04-07T03:37:05.522Z,3.42
2018-04-07T03:39:32.967Z,3.27
2018-04-07T03:42:00.445Z,3.25
2018-04-07T03:44:27.881Z,3.29
2018-04-07T03:46:55.432Z,3.26
2018-04-07T03:49:22.901Z,3.30
2018-04-07T03:51:50.369Z,3.30
2018-04-07T03:54:17.846Z,3.02
2018-04-07T03:56:45.285Z,3.03
2018-04-07T03:59:13.023Z,3.12
2018-04-07T04:01:40.473Z,3.01
2018-04-07T04:04:07.914Z,3.04
2018-04-07T04:06:35.371Z,2.93
2018-04-07T04:09:02.810Z,3.06
2018-04-07T04:11:30.530Z,3.22
2018-04-07T04:13:57.974Z,3.07
2018-04-07T04:16:25.411Z,2.99
2018-04-07T04:18:52.873Z,2.97
2018-04-07T04:21:20.334Z,2.96
2018-04-07T04:23:47.857Z,3.07
2018-04-07T04:26:15.305Z,2.90
2018-04-07T04:28:42.756Z,2.85
2018-04-07T04:31:10.215Z,2.95
2018-04-07T04:33:37.671Z,2.95
2018-04-07T04:36:05.392Z,2.72
2018-04-07T04:38:32.830Z,2.75
2018-04-07T04:41:00.272Z,2.72
2018-04-07T04:43:27.774Z,2.81
2018-04-07T04:45:55.233Z,2.74
2018-04-07T04:48:22.713Z,2.54
2018-04-07T04:50:50.149Z,2.72
2018-04-07T04:53:17.628Z,2.56
2018-04-07T04:55:45.133Z,2.50
2018-04-07T04:58:12.577Z,2.55
2018-04-07T05:00:40.084Z,2.45
2018-04-07T05:03:07.623Z,2.63
2018-04-07T05:05:35.057Z,2.75
2018-04-07T05:08:02.515Z,2.59
2018-04-07T05:10:29.985Z,2.49
2018-04-07T05:12:57.498Z,2.45
2018-04-07T05:15:24.937Z,2.51
2018-04-07T05:17:52.401Z,2.72
2018-04-07T05:20:19.876Z,3.10
2018-04-07T05:22:47.386Z,3.60
2018-04-07T05:25:14.849Z,4.06
2018-04-07T05:27:42.293Z,4.21
2018-04-07T05:30:09.788Z,4.32
2018-04-07T05:32:37.327Z,4.44
2018-04-07T05:35:04.781Z,4.90
2018-04-07T05:37:32.445Z,5.18
2018-04-07T05:39:59.913Z,5.22
2018-04-07T05:42:27.376Z,5.52
2018-04-07T05:44:54.856Z,5.50
2018-04-07T05:47:22.316Z,5.74
2018-04-07T05:49:49.885Z,5.85
2018-04-07T05:52:17.528Z,5.73
2018-04-07T05:54:45.018Z,5.66
2018-04-07T05:57:12.471Z,5.68
2018-04-07T05:59:39.937Z,5.55
2018-04-07T06:02:07.573Z,5.40
2018-04-07T06:04:35.076Z,5.54
2018-04-07T06:07:02.531Z,5.60
2018-04-07T06:09:30.009Z,5.58
2018-04-07T06:11:57.461Z,5.49
2018-04-07T06:14:25.317Z,5.57
2018-04-07T06:16:52.781Z,5.66
2018-04-07T06:19:20.268Z,5.66
2018-04-07T06:21:47.749Z,5.68
2018-04-07T06:24:15.185Z,5.81
2018-04-07T06:26:42.761Z,5.97
2018-04-07T06:29:10.221Z,5.94
2018-04-07T06:31:37.661Z,5.90
2018-04-07T06:34:05.128Z,5.96
2018-04-07T06:36:32.597Z,6.11
2018-04-07T06:39:00.094Z,6.11
2018-04-07T06:41:27.556Z,6.11
2018-04-07T06:43:55.004Z,6.24
2018-04-07T06:46:22.484Z,6.21
2018-04-07T06:48:49.938Z,6.49
2018-04-07T06:51:17.553Z,6.41
2018-04-07T06:53:45.001Z,6.84
2018-04-07T06:56:12.439Z,6.85
2018-04-07T06:58:39.913Z,6.90
2018-04-07T07:01:07.366Z,6.87
2018-04-07T07:03:34.861Z,7.21
2018-04-07T07:06:02.387Z,7.23
2018-04-07T07:08:29.832Z,7.48
2018-04-07T07:10:57.372Z,7.34
2018-04-07T07:13:24.813Z,7.44
2018-04-07T07:15:52.395Z,7.43
2018-04-07T07:18:19.872Z,7.59
2018-04-07T07:20:47.325Z,7.63
2018-04-07T07:23:14.832Z,7.71
2018-04-07T07:25:42.274Z,7.89
2018-04-07T07:28:10.109Z,8.13
2018-04-07T07:30:37.563Z,8.44
2018-04-07T07:33:05.017Z,8.59
2018-04-07T07:35:32.488Z,8.84
2018-04-07T07:37:59.933Z,8.72
2018-04-07T07:40:27.557Z,8.85
2018-04-07T07:42:54.993Z,8.90
2018-04-07T07:45:22.443Z,9.06
2018-04-07T07:47:49.913Z,9.21
2018-04-07T07:50:17.393Z,9.58
2018-04-07T07:52:44.882Z,9.45
2018-04-07T07:55:12.318Z,9.71
2018-04-07T07:57:39.758Z,9.85
2018-04-07T08:00:07.249Z,10.46
2018-04-07T08:02:34.697Z,10.34
2018-04-07T08:05:02.366Z,10.67
2018-04-07T08:07:29.838Z,10.82
2018-04-07T08:09:57.285Z,10.72
2018-04-07T08:12:24.823Z,10.83
2018-04-07T08:14:52.269Z,10.57
2018-04-07T08:17:19.805Z,11.21
2018-04-07T08:19:47.251Z,11.26
2018-04-07T08:22:14.706Z,11.60
2018-04-07T08:24:42.178Z,11.56
2018-04-07T08:27:09.645Z,11.26
2018-04-07T08:29:37.372Z,11.42
2018-04-07T08:32:04.879Z,11.66
2018-04-07T08:34:32.317Z,11.57
2018-04-07T08:36:59.850Z,11.78
2018-04-07T08:39:27.366Z,12.01
2018-04-07T08:41:54.803Z,11.92
2018-04-07T08:44:22.249Z,12.09
2018-04-07T08:46:49.722Z,12.60
2018-04-07T08:49:17.200Z,12.77
2018-04-07T08:51:44.669Z,12.72
2018-04-07T08:54:12.573Z,12.88
2018-04-07T08:56:40.017Z,13.00
2018-04-07T08:59:07.477Z,13.18
2018-04-07T09:01:34.986Z,13.07
2018-04-07T09:04:02.429Z,13.11
2018-04-07T09:06:30.126Z,13.15
2018-04-07T09:08:57.577Z,13.34
2018-04-07T09:11:25.044Z,13.44
2018-04-07T09:13:52.520Z,13.45
2018-04-07T09:16:19.975Z,13.41
2018-04-07T09:18:47.599Z,13.49
2018-04-07T09:21:15.053Z,13.66
2018-04-07T09:23:42.557Z,13.67
2018-04-07T09:26:10.073Z,13.69
2018-04-07T09:28:37.517Z,13.71
2018-04-07T09:31:10.552Z,13.83
2018-04-07T09:33:37.998Z,14.41
2018-04-07T09:36:05.453Z,14.29
2018-04-07T09:38:32.933Z,14.16
2018-04-07T09:41:00.396Z,14.54
2018-04-07T09:43:28.105Z,14.43
2018-04-07T09:45:55.579Z,14.60
2018-04-07T09:48:23.038Z,14.48
2018-04-07T09:50:50.539Z,14.49
2018-04-07T09:53:18.012Z,14.38
2018-04-07T09:55:45.738Z,14.64
2018-04-07T09:58:13.215Z,14.94
2018-04-07T10:00:47.676Z,15.10
2018-04-07T10:03:20.755Z,15.44
2018-04-07T10:05:48.437Z,15.02
2018-04-07T10:08:15.893Z,15.13
2018-04-07T10:10:43.341Z,15.39
2018-04-07T10:13:10.837Z,15.51
2018-04-07T10:15:38.294Z,15.59
2018-04-07T10:18:05.789Z,15.71
2018-04-07T10:20:33.241Z,15.66
2018-04-07T10:23:00.708Z,15.71
2018-04-07T10:25:28.201Z,15.57
2018-04-07T10:27:55.688Z,15.70
2018-04-07T10:30:23.349Z,16.03
2018-04-07T10:32:50.800Z,15.76
2018-04-07T10:35:18.255Z,15.92
2018-04-07T10:37:45.745Z,16.10
2018-04-07T10:40:13.197Z,16.25
2018-04-07T10:42:40.894Z,16.34
2018-04-07T10:45:08.368Z,16.30
2018-04-07T10:47:35.826Z,16.69
2018-04-07T10:50:03.309Z,17.09
2018-04-07T10:52:31.144Z,16.94
2018-04-07T10:54:58.963Z,17.41
2018-04-07T10:57:26.429Z,17.02
2018-04-07T10:59:54.017Z,17.16
2018-04-07T11:02:21.484Z,16.85
2018-04-07T11:04:48.960Z,16.80
2018-04-07T11:07:16.449Z,16.94
2018-04-07T11:09:43.901Z,17.26
2018-04-07T11:12:11.360Z,17.07
2018-04-07T11:14:38.870Z,16.84
2018-04-07T11:17:06.325Z,17.13
2018-04-07T11:19:33.821Z,17.07
2018-04-07T11:22:01.282Z,17.29
2018-04-07T11:24:28.733Z,17.30
2018-04-07T11:26:56.240Z,17.59
2018-04-07T11:29:23.697Z,18.09
2018-04-07T11:31:51.514Z,17.93
2018-04-07T11:34:18.993Z,18.11
2018-04-07T11:36:46.447Z,17.96
2018-04-07T11:39:14.789Z,18.13
2018-04-07T11:41:42.248Z,18.26
2018-04-07T11:44:10.004Z,18.17
2018-04-07T11:46:37.460Z,18.32
2018-04-07T11:49:12.447Z,18.52
2018-04-07T11:51:40.372Z,18.60
2018-04-07T11:54:07.983Z,18.82
2018-04-07T11:56:35.474Z,18.46
2018-04-07T11:59:02.941Z,18.09
2018-04-07T12:01:30.703Z,18.06
2018-04-07T12:03:58.173Z,18.39
2018-04-07T12:06:28.610Z,18.49
2018-04-07T12:08:56.326Z,18.50
2018-04-07T12:11:23.802Z,18.50
2018-04-07T12:13:51.364Z,18.83
2018-04-07T12:16:18.823Z,18.95
2018-04-07T12:18:46.300Z,18.36
2018-04-07T12:21:14.328Z,18.43
2018-04-07T12:23:41.786Z,19.03
2018-04-07T12:26:09.310Z,19.07
2018-04-07T12:28:36.780Z,18.87
2018-04-07T12:31:04.249Z,18.72
2018-04-07T12:33:31.725Z,18.74
2018-04-07T12:35:59.191Z,19.08
2018-04-07T12:38:26.709Z,19.16
2018-04-07T12:40:54.172Z,18.94
2018-04-07T12:43:21.637Z,19.12
2018-04-07T12:45:49.115Z,19.06
2018-04-07T12:48:16.560Z,19.64
2018-04-07T12:50:44.174Z,19.50
2018-04-07T12:53:11.642Z,19.38
2018-04-07T12:55:39.123Z,19.42
2018-04-07T12:58:06.683Z,19.80
2018-04-07T13:00:34.157Z,19.58
2018-04-07T13:03:01.804Z,20.01
2018-04-07T13:05:29.297Z,19.95
2018-04-07T13:07:56.819Z,19.64
2018-04-07T13:10:24.298Z,19.57
2018-04-07T13:12:51.752Z,19.57
2018-04-07T13:15:19.581Z,19.67
2018-04-07T13:17:47.494Z,20.11
2018-04-07T13:20:14.953Z,20.24
2018-04-07T13:22:42.438Z,19.88
2018-04-07T13:25:11.596Z,20.27
2018-04-07T13:27:40.874Z,20.22
2018-04-07T13:30:11.201Z,20.24
2018-04-07T13:32:38.986Z,20.12
2018-04-07T13:35:06.526Z,20.17
2018-04-07T13:37:33.978Z,20.25
2018-04-07T13:40:02.579Z,20.18
2018-04-07T13:42:30.170Z,20.34
2018-04-07T13:44:57.649Z,20.45
2018-04-07T13:47:25.101Z,20.55
2018-04-07T13:49:52.570Z,20.63
2018-04-07T13:52:20.064Z,20.58
2018-04-07T13:54:47.515Z,20.73
2018-04-07T13:57:15.289Z,20.69
2018-04-07T13:59:42.737Z,20.66
2018-04-07T14:02:10.193Z,20.61
2018-04-07T14:04:38.963Z,20.74
2018-04-07T14:07:06.425Z,20.93
2018-04-07T14:09:34.057Z,20.70
2018-04-07T14:12:03.154Z,20.85
2018-04-07T14:14:31.752Z,21.00
2018-04-07T14:16:59.975Z,20.99
2018-04-07T14:19:29.719Z,20.93
2018-04-07T14:21:57.645Z,21.13
2018-04-07T14:24:25.101Z,21.17
2018-04-07T14:26:52.569Z,21.37
2018-04-07T14:29:20.040Z,21.52
2018-04-07T14:31:47.496Z,21.38
2018-04-07T14:34:15.995Z,21.27
2018-04-07T14:36:47.410Z,21.27
2018-04-07T14:39:15.077Z,21.29
2018-04-07T14:41:42.549Z,21.36
2018-04-07T14:44:10.045Z,21.51
2018-04-07T14:46:37.525Z,21.80
2018-04-07T14:49:04.989Z,21.66
2018-04-07T14:51:32.455Z,21.74
2018-04-07T14:53:59.941Z,21.65
2018-04-07T14:56:27.427Z,21.43
2018-04-07T14:58:54.880Z,21.60
2018-04-07T15:01:22.357Z,21.83
2018-04-07T15:03:49.822Z,21.90
2018-04-07T15:06:17.275Z,21.76
2018-04-07T15:08:44.885Z,21.75
2018-04-07T15:11:12.347Z,21.70
2018-04-07T15:13:39.801Z,21.96
2018-04-07T15:16:07.404Z,21.92
2018-04-07T15:18:34.870Z,21.91
2018-04-07T15:21:02.358Z,21.92
2018-04-07T15:23:29.883Z,21.82
2018-04-07T15:25:57.392Z,21.89
2018-04-07T15:28:25.401Z,21.98
2018-04-07T15:30:52.857Z,21.93
2018-04-07T15:33:20.360Z,21.57
2018-04-07T15:35:47.919Z,21.86
2018-04-07T15:38:15.389Z,21.94
2018-04-07T15:40:43.143Z,22.11
2018-04-07T15:43:10.613Z,21.96
2018-04-07T15:45:38.111Z,22.13
2018-04-07T15:48:05.597Z,22.14
2018-04-07T15:50:33.348Z,22.07
2018-04-07T15:53:01.196Z,22.11
2018-04-07T15:55:28.674Z,22.23
2018-04-07T15:57:56.181Z,22.20
2018-04-07T16:00:23.652Z,22.05
2018-04-07T16:02:51.113Z,22.03
2018-04-07T16:05:18.665Z,22.02
2018-04-07T16:07:46.369Z,22.15
2018-04-07T16:10:14.077Z,22.02
2018-04-07T16:12:41.557Z,22.05
2018-04-07T16:15:09.065Z,22.05
2018-04-07T16:17:36.901Z,22.09
2018-04-07T16:20:04.362Z,22.09
2018-04-07T16:22:31.824Z,22.13
2018-04-07T16:24:59.307Z,22.13
2018-04-07T16:27:27.997Z,22.15
2018-04-07T16:29:56.256Z,22.22
2018-04-07T16:32:23.719Z,22.11
2018-04-07T16:34:51.184Z,22.20
2018-04-07T16:37:18.673Z,22.17
2018-04-07T16:39:46.132Z,22.20
2018-04-07T16:42:13.795Z,22.10
2018-04-07T16:44:41.245Z,22.09
2018-04-07T16:47:08.711Z,22.07
2018-04-07T16:49:36.221Z,22.06
2018-04-07T16:52:03.691Z,22.00
2018-04-07T16:54:31.198Z,21.96
2018-04-07T16:56:58.649Z,21.89
2018-04-07T16:59:26.093Z,21.84
2018-04-07T17:01:53.564Z,21.78
2018-04-07T17:04:21.033Z,21.73
2018-04-07T17:06:48.525Z,21.68
2018-04-07T17:09:15.973Z,21.59
2018-04-07T17:11:43.427Z,21.60
2018-04-07T17:14:10.893Z,21.53
2018-04-07T17:16:38.344Z,21.43
2018-04-07T17:19:05.988Z,21.37
2018-04-07T17:21:33.450Z,21.29
2018-04-07T17:24:00.956Z,21.07
2018-04-07T17:26:28.393Z,21.05
2018-04-07T17:28:55.837Z,20.92
2018-04-07T17:31:23.313Z,20.81
2018-04-07T17:33:50.764Z,20.50
2018-04-07T17:36:18.232Z,20.41
2018-04-07T17:38:45.721Z,20.27
2018-04-07T17:41:13.170Z,20.10
2018-04-07T17:43:40.643Z,19.92
2018-04-07T17:46:08.090Z,19.99
2018-04-07T17:48:35.543Z,19.71
2018-04-07T17:51:03.906Z,19.53
2018-04-07T17:53:31.349Z,19.39
2018-04-07T17:55:58.919Z,19.34
2018-04-07T17:58:26.386Z,19.31
2018-04-07T18:00:53.834Z,19.01
2018-04-07T18:03:21.302Z,18.68
2018-04-07T18:05:48.753Z,18.48
2018-04-07T18:08:16.616Z,18.30
2018-04-07T18:10:44.057Z,18.24
2018-04-07T18:13:11.518Z,18.26
2018-04-07T18:15:38.994Z,18.23
2018-04-07T18:18:06.449Z,18.02
2018-04-07T18:20:34.105Z,17.91
2018-04-07T18:23:01.566Z,17.87
2018-04-07T18:25:29.017Z,17.65
2018-04-07T18:27:56.514Z,17.53
2018-04-07T18:30:23.961Z,17.52
2018-04-07T18:32:51.522Z,17.46
2018-04-07T18:35:18.966Z,17.37
2018-04-07T18:37:46.422Z,17.23
2018-04-07T18:40:13.912Z,16.92
2018-04-07T18:42:41.389Z,16.90
2018-04-07T18:45:08.859Z,16.92
2018-04-07T18:47:36.334Z,16.75
2018-04-07T18:50:04.136Z,16.76
2018-04-07T18:52:31.617Z,16.59
2018-04-07T18:54:59.128Z,16.55
2018-04-07T18:57:26.643Z,16.42
2018-04-07T18:59:54.131Z,16.35
2018-04-07T19:02:21.939Z,16.32
2018-04-07T19:04:49.430Z,16.39
2018-04-07T19:07:16.954Z,16.43
2018-04-07T19:09:44.536Z,16.38
2018-04-07T19:12:12.033Z,16.37
2018-04-07T19:14:39.949Z,16.18
2018-04-07T19:17:07.463Z,15.81
2018-04-07T19:19:34.967Z,15.62
2018-04-07T19:22:02.477Z,15.55
2018-04-07T19:24:31.583Z,15.41
2018-04-07T19:27:08.498Z,15.30
2018-04-07T19:29:36.314Z,15.39
2018-04-07T19:32:03.813Z,15.38
2018-04-07T19:34:31.281Z,15.33
2018-04-07T19:36:58.789Z,15.24
2018-04-07T19:39:26.303Z,14.95
2018-04-07T19:41:53.827Z,14.95
2018-04-07T19:44:21.390Z,14.65
2018-04-07T19:46:48.882Z,14.44
2018-04-07T19:49:16.347Z,14.39
2018-04-07T19:51:44.094Z,14.08
2018-04-07T19:54:11.590Z,13.98
2018-04-07T19:56:39.069Z,13.76
2018-04-07T19:59:06.537Z,13.73
2018-04-07T20:01:33.981Z,13.63
2018-04-07T20:04:01.766Z,13.52
2018-04-07T20:06:29.269Z,13.42
2018-04-07T20:08:56.772Z,13.29
2018-04-07T20:11:24.301Z,13.15
2018-04-07T20:13:51.763Z,13.09
2018-04-07T20:16:19.258Z,13.03
2018-04-07T20:18:46.740Z,13.03
2018-04-07T20:21:14.428Z,12.95
2018-04-07T20:23:41.937Z,12.89
2018-04-07T20:26:09.426Z,12.47
2018-04-07T20:28:36.905Z,12.36
2018-04-07T20:31:04.370Z,12.52
2018-04-07T20:33:31.891Z,12.28
2018-04-07T20:35:59.399Z,12.38
2018-04-07T20:38:26.878Z,12.11
2018-04-07T20:40:56.279Z,12.19
2018-04-07T20:43:23.757Z,12.16
2018-04-07T20:45:51.439Z,12.18
2018-04-07T20:48:18.935Z,11.96
2018-04-07T20:50:46.632Z,12.03
2018-04-07T20:53:14.106Z,12.06
2018-04-07T20:55:41.581Z,12.00
2018-04-07T20:58:09.066Z,11.93
2018-04-07T21:00:36.534Z,11.96
2018-04-07T21:03:04.182Z,11.81
2018-04-07T21:05:31.633Z,11.49
2018-04-07T21:07:59.083Z,11.41
2018-04-07T21:10:26.546Z,11.37
2018-04-07T21:12:54.014Z,11.48
2018-04-07T21:15:21.649Z,11.37
2018-04-07T21:17:49.124Z,11.43
2018-04-07T21:20:16.591Z,11.42
2018-04-07T21:22:44.087Z,11.17
2018-04-07T21:25:11.559Z,11.12
2018-04-07T21:27:39.014Z,10.98
2018-04-07T21:30:06.493Z,10.99
2018-04-07T21:32:33.945Z,10.90
2018-04-07T21:35:01.409Z,10.95
2018-04-07T21:37:28.908Z,10.97
2018-04-07T21:39:56.356Z,11.04
2018-04-07T21:42:23.845Z,10.86
2018-04-07T21:44:51.353Z,10.84
2018-04-07T21:47:18.821Z,10.74
2018-04-07T21:49:46.517Z,10.80
2018-04-07T21:52:14.229Z,10.96
2018-04-07T21:54:41.691Z,10.87
2018-04-07T21:57:09.189Z,10.87
2018-04-07T21:59:36.698Z,10.60
2018-04-07T22:02:04.870Z,10.49
2018-04-07T22:04:32.321Z,10.64
2018-04-07T22:07:00.244Z,10.53
2018-04-07T22:09:27.699Z,10.43
2018-04-07T22:11:55.225Z,10.43
2018-04-07T22:14:22.957Z,10.42
2018-04-07T22:16:50.410Z,10.50
2018-04-07T22:19:17.877Z,10.24
2018-04-07T22:21:45.490Z,10.05
2018-04-07T22:24:12.992Z,10.03
2018-04-07T22:26:40.465Z,10.11
2018-04-07T22:29:09.913Z,9.92
2018-04-07T22:31:37.389Z,10.03
2018-04-07T22:34:04.846Z,10.00
2018-04-07T22:36:32.549Z,10.18
2018-04-07T22:39:00.014Z,10.13
2018-04-07T22:41:27.500Z,9.47
2018-04-07T22:43:54.978Z,9.80
2018-04-07T22:46:22.421Z,9.73
2018-04-07T22:48:49.925Z,9.74
2018-04-07T22:51:17.449Z,9.74
2018-04-07T22:53:44.863Z,9.85
2018-04-07T22:56:12.330Z,9.70
2018-04-07T22:58:39.845Z,9.82
2018-04-07T23:01:07.654Z,9.59
2018-04-07T23:03:35.093Z,9.46
2018-04-07T23:06:02.552Z,9.55
2018-04-07T23:08:30.021Z,9.42
2018-04-07T23:10:57.482Z,9.45
2018-04-07T23:13:24.967Z,9.32
2018-04-07T23:15:52.426Z,9.31
2018-04-07T23:18:19.904Z,9.35
2018-04-07T23:20:47.378Z,9.23
2018-04-07T23:23:14.837Z,9.22
2018-04-07T23:25:42.644Z,9.33
2018-04-07T23:28:10.166Z,9.22
2018-04-07T23:30:37.637Z,9.19
2018-04-07T23:33:05.108Z,9.16
2018-04-07T23:35:32.565Z,9.20
2018-04-07T23:38:00.058Z,9.24
2018-04-07T23:40:27.505Z,9.01
2018-04-07T23:42:54.974Z,9.08
2018-04-07T23:45:22.438Z,8.96
2018-04-07T23:47:49.930Z,9.11
2018-04-07T23:50:17.424Z,9.16
2018-04-07T23:52:44.869Z,9.10
2018-04-07T23:55:12.321Z,9.14
2018-04-07T23:57:39.793Z,9.05
